Time;durP1;ratioP1;P1;durP2;ratioP2;P2;SDS_P1;SDS_P2;PMS_P1;PMS_P2;Temp;Humidity;BMP_temperature;BMP_pressure;BME280_temperature;BME280_humidity;BME280_pressure;Samples;Min_cycle;Max_cycle;Signal;HPM_P1;HPM_P2
2023/06/04 00:00:46;;;;;;;8.80;4.75;;;11.00;99.90;;;;;;5041949;28;20441;-75
2023/06/04 00:03:12;;;;;;;12.27;5.13;;;10.90;99.90;;;;;;5044079;28;20409;-75
2023/06/04 00:05:38;;;;;;;8.20;4.03;;;10.90;99.90;;;;;;5046300;28;20436;-75
2023/06/04 00:08:04;;;;;;;11.15;4.85;;;10.80;99.90;;;;;;5043625;28;20424;-75
2023/06/04 00:10:31;;;;;;;9.02;4.72;;;10.80;99.90;;;;;;5043458;28;20796;-75
2023/06/04 00:12:56;;;;;;;7.07;3.95;;;10.80;99.90;;;;;;5045820;28;20418;-74
2023/06/04 00:15:22;;;;;;;8.75;4.22;;;10.90;99.90;;;;;;5042068;28;20433;-77
2023/06/04 00:17:48;;;;;;;10.50;4.13;;;10.80;99.90;;;;;;5027584;28;20429;-77
2023/06/04 00:20:14;;;;;;;7.88;4.15;;;10.90;99.90;;;;;;5043679;28;20418;-75
2023/06/04 00:22:41;;;;;;;8.85;4.70;;;10.80;99.90;;;;;;5042187;28;20437;-75
2023/06/04 00:25:08;;;;;;;10.25;4.93;;;10.70;99.90;;;;;;5026128;28;20506;-76
2023/06/04 00:27:34;;;;;;;8.95;4.03;;;10.60;99.90;;;;;;5044333;28;20464;-75
2023/06/04 00:30:00;;;;;;;9.03;4.57;;;10.50;99.90;;;;;;5027724;28;20422;-75
2023/06/04 00:32:25;;;;;;;8.73;4.10;;;10.50;99.90;;;;;;5043474;28;20426;-77
2023/06/04 00:34:55;;;;;;;12.15;4.55;;;10.60;99.90;;;;;;5044022;28;20478;-76
2023/06/04 00:37:30;;;;;;;7.93;4.18;;;10.50;99.90;;;;;;5035118;28;20434;-75
2023/06/04 00:39:55;;;;;;;9.10;4.00;;;10.50;99.90;;;;;;5025349;28;20425;-75
2023/06/04 00:42:21;;;;;;;10.27;4.37;;;10.60;99.90;;;;;;5027502;28;20498;-75
2023/06/04 00:44:47;;;;;;;9.70;4.23;;;10.40;99.90;;;;;;5028105;28;20833;-75
2023/06/04 00:47:14;;;;;;;12.23;5.27;;;10.40;99.90;;;;;;5045001;28;20429;-76
2023/06/04 00:49:41;;;;;;;10.02;4.93;;;10.50;99.90;;;;;;5035706;28;20461;-75
2023/06/04 00:52:08;;;;;;;9.25;4.75;;;10.40;99.90;;;;;;5044904;28;21192;-76
2023/06/04 00:54:35;;;;;;;10.70;5.28;;;10.40;99.90;;;;;;5041840;28;20425;-75
2023/06/04 00:57:01;;;;;;;9.83;4.63;;;10.40;99.90;;;;;;5043302;28;20656;-75
2023/06/04 00:59:28;;;;;;;8.38;3.92;;;10.40;99.90;;;;;;5043478;28;20888;-75
2023/06/04 01:02:02;;;;;;;10.30;4.45;;;10.50;99.90;;;;;;5043386;28;20761;-74
2023/06/04 01:04:31;;;;;;;8.93;4.45;;;10.40;99.90;;;;;;5026775;28;20480;-75
2023/06/04 01:07:00;;;;;;;8.80;4.20;;;10.40;99.90;;;;;;5043536;28;20459;-75
2023/06/04 01:09:27;;;;;;;8.52;4.30;;;10.50;99.90;;;;;;5025608;28;20444;-74
2023/06/04 01:11:53;;;;;;;8.75;3.78;;;10.40;99.90;;;;;;5042903;28;20437;-75
2023/06/04 01:14:18;;;;;;;10.90;4.50;;;10.30;99.90;;;;;;5043040;28;20424;-76
2023/06/04 01:16:50;;;;;;;10.55;4.68;;;10.30;99.90;;;;;;5042212;28;20559;-75
2023/06/04 01:19:21;;;;;;;9.77;5.05;;;10.40;99.90;;;;;;5037020;28;20882;-75
2023/06/04 01:21:51;;;;;;;9.25;4.38;;;10.30;99.90;;;;;;5025893;28;20475;-76
2023/06/04 01:24:21;;;;;;;8.57;4.43;;;10.20;99.90;;;;;;5040227;28;20787;-75
2023/06/04 01:26:48;;;;;;;8.60;4.53;;;10.30;99.90;;;;;;5043501;28;20436;-75
2023/06/04 01:29:13;;;;;;;7.35;3.95;;;10.10;99.90;;;;;;5045718;28;20905;-77
2023/06/04 01:31:40;;;;;;;13.07;5.10;;;10.40;99.90;;;;;;5042546;28;20479;-74
2023/06/04 01:34:07;;;;;;;9.43;5.10;;;10.10;99.90;;;;;;5047735;28;20743;-75
2023/06/04 01:36:33;;;;;;;9.67;4.77;;;10.10;99.90;;;;;;5025209;28;20935;-75
2023/06/04 01:39:00;;;;;;;8.50;4.13;;;10.20;99.90;;;;;;5047622;28;20428;-75
2023/06/04 01:41:26;;;;;;;8.48;3.90;;;10.30;99.90;;;;;;5047674;28;20448;-75
2023/06/04 01:43:51;;;;;;;11.90;4.88;;;10.20;99.90;;;;;;5044304;28;21030;-74
2023/06/04 01:46:17;;;;;;;13.73;5.10;;;10.30;99.90;;;;;;5047864;28;20460;-77
2023/06/04 01:48:43;;;;;;;8.07;4.80;;;10.30;99.90;;;;;;5044850;28;20429;-74
2023/06/04 01:51:09;;;;;;;12.83;5.03;;;10.20;99.90;;;;;;5045694;28;20586;-75
2023/06/04 01:53:35;;;;;;;8.03;5.10;;;10.00;99.90;;;;;;5029705;28;21095;-75
2023/06/04 01:56:01;;;;;;;9.20;4.60;;;10.10;99.90;;;;;;5049151;28;20435;-75
2023/06/04 01:58:27;;;;;;;10.60;5.03;;;10.10;99.90;;;;;;5048127;28;20421;-74
2023/06/04 02:00:59;;;;;;;9.80;4.68;;;10.10;99.90;;;;;;5047834;28;20440;-75
2023/06/04 02:03:26;;;;;;;9.45;5.35;;;10.40;99.90;;;;;;5048337;28;20422;-76
2023/06/04 02:05:51;;;;;;;12.03;5.57;;;10.30;99.90;;;;;;5046642;28;20436;-75
2023/06/04 02:08:18;;;;;;;9.73;4.93;;;10.40;99.90;;;;;;5014894;28;20493;-77
2023/06/04 02:10:46;;;;;;;12.07;4.87;;;10.40;99.90;;;;;;5039061;28;20485;-74
2023/06/04 02:13:12;;;;;;;10.43;4.72;;;10.30;99.90;;;;;;5041928;28;20508;-75
2023/06/04 02:15:38;;;;;;;9.73;4.40;;;10.20;99.90;;;;;;5047705;28;20520;-75
2023/06/04 02:18:24;;;;;;;9.30;4.82;;;10.10;99.90;;;;;;5048588;28;20509;-75
2023/06/04 02:20:50;;;;;;;9.35;4.32;;;10.10;99.90;;;;;;5035034;28;20502;-75
2023/06/04 02:23:17;;;;;;;10.20;4.53;;;10.20;99.90;;;;;;5043771;28;20417;-75
2023/06/04 02:25:47;;;;;;;14.97;5.50;;;10.10;99.90;;;;;;5049498;28;20409;-74
2023/06/04 02:28:13;;;;;;;7.90;4.47;;;10.30;99.90;;;;;;5031169;28;20487;-76
2023/06/04 02:30:39;;;;;;;11.27;4.40;;;10.10;99.90;;;;;;5029447;28;20460;-74
2023/06/04 02:33:05;;;;;;;9.10;4.15;;;10.20;99.90;;;;;;5046826;28;21150;-75
2023/06/04 02:35:31;;;;;;;10.18;5.13;;;10.10;99.90;;;;;;5047453;28;20842;-76
2023/06/04 02:38:00;;;;;;;9.82;5.25;;;10.10;99.90;;;;;;5047071;28;20425;-75
2023/06/04 02:40:26;;;;;;;10.63;4.57;;;10.00;99.90;;;;;;5047878;28;20425;-75
2023/06/04 02:42:55;;;;;;;10.65;4.53;;;10.00;99.90;;;;;;5036036;28;20511;-75
2023/06/04 02:45:22;;;;;;;11.87;4.60;;;10.20;99.90;;;;;;5048559;28;20478;-75
2023/06/04 02:47:48;;;;;;;8.00;5.17;;;9.90;99.90;;;;;;5030614;28;20433;-76
2023/06/04 02:50:17;;;;;;;9.85;5.32;;;10.10;99.90;;;;;;5049079;28;20413;-74
2023/06/04 02:52:43;;;;;;;12.00;5.00;;;10.10;99.90;;;;;;5028873;28;20436;-75
2023/06/04 02:55:09;;;;;;;8.57;4.32;;;10.10;99.90;;;;;;5045162;28;20425;-75
2023/06/04 02:57:35;;;;;;;13.03;4.57;;;10.00;99.90;;;;;;5044378;28;21520;-74
2023/06/04 03:00:10;;;;;;;10.52;4.65;;;10.10;99.90;;;;;;5045747;28;20570;-75
2023/06/04 03:02:36;;;;;;;8.23;4.60;;;10.10;99.90;;;;;;5046065;28;20827;-76
2023/06/04 03:05:02;;;;;;;11.82;4.43;;;9.80;99.90;;;;;;5030177;28;20430;-75
2023/06/04 03:07:27;;;;;;;14.50;5.68;;;9.80;99.90;;;;;;5046594;28;20433;-76
2023/06/04 03:09:53;;;;;;;10.73;5.50;;;9.90;99.90;;;;;;5031091;28;20488;-76
2023/06/04 03:12:19;;;;;;;11.70;5.53;;;9.70;99.90;;;;;;5044056;28;21005;-74
2023/06/04 03:14:45;;;;;;;9.48;4.65;;;9.70;99.90;;;;;;5046456;28;20825;-76
2023/06/04 03:17:10;;;;;;;12.52;5.07;;;9.70;99.90;;;;;;5027872;28;20425;-75
2023/06/04 03:19:38;;;;;;;10.40;4.38;;;9.90;99.90;;;;;;5028346;28;20431;-75
2023/06/04 03:22:05;;;;;;;10.93;5.73;;;9.80;99.90;;;;;;5045034;28;20501;-75
2023/06/04 03:24:37;;;;;;;11.00;5.38;;;9.90;99.90;;;;;;5025281;28;20444;-74
2023/06/04 03:27:07;;;;;;;10.20;5.63;;;9.80;99.90;;;;;;5026816;28;20464;-76
2023/06/04 03:29:33;;;;;;;10.07;4.93;;;10.00;99.90;;;;;;5040365;28;20417;-75
2023/06/04 03:31:59;;;;;;;12.67;6.27;;;9.90;99.90;;;;;;5044113;28;20504;-75
2023/06/04 03:34:25;;;;;;;12.10;5.57;;;9.90;99.90;;;;;;5046339;28;20805;-76
2023/06/04 03:36:55;;;;;;;11.70;6.27;;;9.80;99.90;;;;;;5045290;28;20511;-75
2023/06/04 03:39:21;;;;;;;14.05;6.18;;;9.90;99.90;;;;;;5045614;28;20429;-75
2023/06/04 03:41:47;;;;;;;12.10;5.40;;;9.90;99.90;;;;;;5028554;28;20498;-75
2023/06/04 03:44:14;;;;;;;11.18;5.03;;;9.90;99.90;;;;;;5044560;28;20830;-76
2023/06/04 03:46:44;;;;;;;13.00;5.53;;;10.10;99.90;;;;;;5046567;28;20919;-73
2023/06/04 03:49:10;;;;;;;12.73;6.65;;;10.00;99.90;;;;;;5028282;28;20435;-75
2023/06/04 03:51:37;;;;;;;15.63;6.60;;;10.10;99.90;;;;;;5043889;28;20779;-75
2023/06/04 03:54:03;;;;;;;11.53;5.93;;;10.00;99.90;;;;;;5044660;28;20493;-74
2023/06/04 03:56:28;;;;;;;13.70;6.67;;;10.00;99.90;;;;;;5044191;28;20452;-75
2023/06/04 03:58:54;;;;;;;11.97;5.80;;;10.10;99.90;;;;;;5028726;28;20782;-75
2023/06/04 04:01:20;;;;;;;12.43;5.70;;;10.10;99.90;;;;;;5030037;28;20500;-75
2023/06/04 04:03:49;;;;;;;13.60;5.45;;;10.10;99.90;;;;;;5045004;28;20927;-74
2023/06/04 04:06:16;;;;;;;10.50;6.28;;;10.30;99.90;;;;;;5005381;28;20433;-73
2023/06/04 04:08:44;;;;;;;13.95;6.13;;;10.30;99.90;;;;;;5042362;28;20424;-74
2023/06/04 04:11:12;;;;;;;16.17;6.53;;;10.50;99.90;;;;;;5040556;28;20433;-74
2023/06/04 04:13:37;;;;;;;15.45;6.57;;;10.40;99.90;;;;;;5045554;28;21234;-74
2023/06/04 04:16:03;;;;;;;8.90;6.05;;;10.70;99.90;;;;;;5042782;28;20429;-75
2023/06/04 04:18:33;;;;;;;14.48;7.72;;;10.90;99.90;;;;;;5041888;28;20440;-75
2023/06/04 04:20:59;;;;;;;15.68;6.85;;;10.50;99.90;;;;;;5043304;28;20433;-74
2023/06/04 04:23:25;;;;;;;11.55;6.95;;;10.70;99.90;;;;;;5030221;28;20525;-75
2023/06/04 04:25:51;;;;;;;14.33;6.83;;;10.60;99.90;;;;;;5045673;28;20853;-76
2023/06/04 04:28:17;;;;;;;11.57;5.80;;;10.60;99.90;;;;;;5044306;28;20431;-75
2023/06/04 04:30:44;;;;;;;12.35;6.10;;;11.00;99.90;;;;;;5034551;28;20513;-76
2023/06/04 04:33:10;;;;;;;10.52;5.75;;;11.10;99.90;;;;;;5045594;28;20449;-74
2023/06/04 04:35:36;;;;;;;10.93;5.88;;;11.10;99.90;;;;;;5044073;28;20483;-76
2023/06/04 04:38:05;;;;;;;13.30;6.30;;;10.90;99.90;;;;;;5008543;28;20449;-75
2023/06/04 04:40:31;;;;;;;15.77;6.85;;;10.90;99.90;;;;;;5044438;28;20424;-74
2023/06/04 04:42:58;;;;;;;12.15;6.43;;;11.10;99.90;;;;;;5045580;28;20455;-75
2023/06/04 04:45:24;;;;;;;11.05;6.13;;;11.30;99.90;;;;;;5043750;28;20482;-74
2023/06/04 04:47:50;;;;;;;9.85;6.25;;;11.70;99.90;;;;;;5046308;28;20425;-75
2023/06/04 04:50:16;;;;;;;15.23;6.18;;;11.00;99.90;;;;;;5045781;28;20482;-75
2023/06/04 04:52:42;;;;;;;12.20;5.80;;;11.30;99.90;;;;;;5045161;28;20425;-75
2023/06/04 04:55:08;;;;;;;13.50;6.40;;;11.20;99.90;;;;;;5029069;28;20425;-75
2023/06/04 04:57:34;;;;;;;16.45;6.50;;;11.40;99.90;;;;;;5042110;28;20429;-76
2023/06/04 05:00:00;;;;;;;9.77;5.50;;;11.20;99.90;;;;;;5043457;28;20767;-77
2023/06/04 05:02:25;;;;;;;13.53;7.10;;;11.20;99.90;;;;;;5043320;28;20428;-75
2023/06/04 05:04:51;;;;;;;12.37;6.80;;;11.40;99.90;;;;;;5044199;28;20452;-75
2023/06/04 05:07:17;;;;;;;9.63;6.40;;;11.30;99.90;;;;;;5041909;28;20424;-74
2023/06/04 05:09:42;;;;;;;11.85;6.78;;;11.40;99.90;;;;;;5028941;28;20504;-76
2023/06/04 05:12:08;;;;;;;12.30;6.22;;;11.60;99.90;;;;;;5042023;28;20449;-75
2023/06/04 05:14:35;;;;;;;10.88;6.28;;;11.40;99.90;;;;;;5042086;28;20421;-75
2023/06/04 05:17:03;;;;;;;11.98;6.10;;;11.70;99.90;;;;;;5022908;28;20555;-75
2023/06/04 05:19:32;;;;;;;14.30;6.60;;;11.50;99.90;;;;;;5045853;28;20416;-75
2023/06/04 05:21:59;;;;;;;12.05;6.00;;;11.70;99.90;;;;;;5046721;28;20413;-75
2023/06/04 05:24:24;;;;;;;10.40;6.63;;;11.80;99.90;;;;;;5045378;28;20433;-75
2023/06/04 05:26:50;;;;;;;15.00;7.00;;;11.80;99.90;;;;;;5046019;28;20421;-76
2023/06/04 05:29:16;;;;;;;18.35;6.72;;;11.80;99.90;;;;;;5043831;28;20436;-72
2023/06/04 05:31:42;;;;;;;11.75;5.90;;;11.90;99.90;;;;;;5041571;28;20440;-74
2023/06/04 05:34:08;;;;;;;13.30;7.30;;;11.80;99.90;;;;;;5046181;28;20432;-75
2023/06/04 05:36:34;;;;;;;14.13;7.50;;;12.00;99.90;;;;;;5044114;28;20487;-75
2023/06/04 05:39:00;;;;;;;14.18;6.97;;;12.00;99.90;;;;;;5043758;28;20481;-75
2023/06/04 05:41:27;;;;;;;10.82;6.78;;;12.30;99.90;;;;;;5038243;28;20780;-74
2023/06/04 05:43:53;;;;;;;12.43;7.35;;;12.30;99.90;;;;;;5043816;28;20440;-75
2023/06/04 05:46:19;;;;;;;13.85;7.30;;;12.50;99.90;;;;;;5043958;28;20437;-76
2023/06/04 05:48:45;;;;;;;10.55;6.70;;;12.70;99.90;;;;;;5046615;28;20417;-76
2023/06/04 05:51:14;;;;;;;10.25;5.55;;;12.80;99.90;;;;;;5044962;28;20509;-76
2023/06/04 05:53:39;;;;;;;12.23;6.30;;;13.20;99.90;;;;;;5041922;28;20449;-76
2023/06/04 05:56:05;;;;;;;14.27;6.67;;;12.70;99.90;;;;;;5027105;28;20460;-76
2023/06/04 05:58:34;;;;;;;12.20;6.43;;;12.70;99.90;;;;;;5042999;28;20943;-76
2023/06/04 06:01:00;;;;;;;11.70;5.82;;;12.60;99.90;;;;;;5026915;28;20416;-76
2023/06/04 06:03:27;;;;;;;11.00;5.85;;;12.70;99.90;;;;;;5044859;28;20471;-76
2023/06/04 06:05:54;;;;;;;10.70;5.70;;;12.60;99.90;;;;;;5045687;28;20428;-77
2023/06/04 06:08:20;;;;;;;12.32;6.07;;;12.60;99.90;;;;;;5023624;28;20821;-76
2023/06/04 06:10:46;;;;;;;13.40;6.35;;;12.70;99.90;;;;;;5044824;28;20854;-75
2023/06/04 06:13:12;;;;;;;12.98;5.93;;;12.90;99.90;;;;;;5041157;28;20462;-76
2023/06/04 06:15:40;;;;;;;12.53;4.77;;;13.00;99.90;;;;;;5025027;28;21011;-76
2023/06/04 06:18:06;;;;;;;13.90;4.50;;;12.90;99.90;;;;;;5008360;28;20437;-74
2023/06/04 06:20:32;;;;;;;11.95;4.88;;;12.90;99.90;;;;;;5047941;28;20775;-76
2023/06/04 06:23:06;;;;;;;13.87;5.93;;;13.20;99.90;;;;;;5046501;28;21376;-75
2023/06/04 06:25:32;;;;;;;14.85;6.18;;;13.20;99.90;;;;;;5047464;28;20506;-77
2023/06/04 06:27:57;;;;;;;12.43;4.87;;;13.20;99.90;;;;;;5044905;28;20963;-77
2023/06/04 06:30:23;;;;;;;12.73;5.85;;;13.50;99.90;;;;;;5047997;28;20417;-74
2023/06/04 06:32:49;;;;;;;10.85;4.78;;;13.30;99.90;;;;;;5047706;28;20848;-76
2023/06/04 06:35:17;;;;;;;12.43;4.65;;;13.60;99.90;;;;;;5049251;28;20479;-77
2023/06/04 06:37:43;;;;;;;9.57;4.53;;;13.60;99.90;;;;;;5044545;28;20425;-76
2023/06/04 06:40:09;;;;;;;15.20;4.45;;;13.50;99.90;;;;;;5046889;28;21008;-75
2023/06/04 06:42:35;;;;;;;10.30;4.00;;;13.60;99.90;;;;;;5047073;28;20437;-76
2023/06/04 06:45:01;;;;;;;9.82;3.33;;;13.70;99.90;;;;;;5032615;28;20425;-75
2023/06/04 06:47:27;;;;;;;9.38;3.20;;;13.60;99.90;;;;;;5029075;28;20759;-75
2023/06/04 06:49:52;;;;;;;11.60;4.00;;;14.20;99.90;;;;;;5049002;28;20405;-75
2023/06/04 06:52:19;;;;;;;8.77;3.27;;;15.30;99.90;;;;;;5046301;28;20418;-75
2023/06/04 06:54:45;;;;;;;11.02;4.07;;;15.60;99.90;;;;;;5047197;28;20444;-75
2023/06/04 06:57:11;;;;;;;9.55;4.82;;;15.30;99.90;;;;;;5028008;28;20961;-73
2023/06/04 06:59:37;;;;;;;7.55;3.30;;;15.80;99.90;;;;;;5029299;28;20753;-74
2023/06/04 07:02:03;;;;;;;11.75;3.33;;;16.10;99.90;;;;;;5047068;28;20443;-74
2023/06/04 07:04:29;;;;;;;8.88;3.17;;;16.80;99.90;;;;;;5034138;28;20415;-76
2023/06/04 07:06:55;;;;;;;10.88;4.25;;;17.40;99.90;;;;;;5046375;28;20443;-76
2023/06/04 07:09:20;;;;;;;8.68;2.65;;;17.70;99.90;;;;;;5047215;28;20424;-75
2023/06/04 07:11:46;;;;;;;10.47;3.87;;;17.90;99.90;;;;;;5047732;28;20429;-76
2023/06/04 07:14:12;;;;;;;8.47;3.43;;;17.80;99.90;;;;;;5047636;28;20417;-74
2023/06/04 07:16:37;;;;;;;9.52;3.35;;;18.10;99.90;;;;;;5046174;28;20436;-72
2023/06/04 07:19:03;;;;;;;7.17;2.80;;;17.80;99.90;;;;;;5047211;28;20812;-77
2023/06/04 07:21:29;;;;;;;6.47;2.90;;;17.80;99.90;;;;;;5048655;28;20433;-75
2023/06/04 07:23:54;;;;;;;8.68;2.58;;;18.00;99.90;;;;;;5047519;28;20767;-72
2023/06/04 07:26:20;;;;;;;8.15;2.40;;;17.80;99.90;;;;;;5027465;28;20518;-74
2023/06/04 07:28:46;;;;;;;6.83;2.40;;;18.40;99.90;;;;;;5039280;28;20505;-74
2023/06/04 07:31:15;;;;;;;8.67;2.33;;;18.00;99.90;;;;;;5037003;28;20428;-73
2023/06/04 07:33:43;;;;;;;7.30;3.15;;;18.20;99.90;;;;;;5047514;28;20418;-74
2023/06/04 07:36:16;;;;;;;6.78;2.15;;;18.60;99.90;;;;;;5047449;28;20492;-74
2023/06/04 07:38:42;;;;;;;6.40;2.45;;;18.00;99.90;;;;;;5043504;28;20421;-74
2023/06/04 07:41:08;;;;;;;6.93;2.40;;;19.10;99.90;;;;;;5033248;28;20423;-74
2023/06/04 07:43:35;;;;;;;6.00;2.15;;;18.90;99.90;;;;;;5047767;28;20421;-76
2023/06/04 07:46:01;;;;;;;8.00;2.30;;;17.60;99.90;;;;;;5047676;28;20428;-76
2023/06/04 07:48:30;;;;;;;6.97;2.13;;;16.90;99.90;;;;;;5042707;28;20478;-75
2023/06/04 07:50:59;;;;;;;5.57;2.45;;;16.50;99.90;;;;;;5047855;28;20959;-78
2023/06/04 07:53:26;;;;;;;8.80;2.60;;;16.50;99.90;;;;;;5047109;28;20455;-73
2023/06/04 07:55:52;;;;;;;6.97;2.47;;;16.50;99.90;;;;;;5042030;28;20427;-76
2023/06/04 07:58:18;;;;;;;7.85;2.67;;;16.60;99.90;;;;;;5045262;28;20460;-76
2023/06/04 08:00:43;;;;;;;7.57;3.35;;;17.30;99.90;;;;;;5048993;28;20780;-75
2023/06/04 08:03:10;;;;;;;6.70;2.50;;;16.90;99.90;;;;;;5049366;28;20833;-78
2023/06/04 08:05:35;;;;;;;7.43;2.55;;;16.60;99.90;;;;;;5029936;28;20493;-76
2023/06/04 08:08:01;;;;;;;5.93;2.17;;;16.60;99.90;;;;;;5046578;28;20417;-76
2023/06/04 08:10:27;;;;;;;7.85;2.65;;;17.10;99.90;;;;;;5046354;28;20760;-76
2023/06/04 08:12:53;;;;;;;8.07;2.50;;;16.90;99.90;;;;;;5042777;28;20422;-78
2023/06/04 08:15:18;;;;;;;6.53;2.57;;;17.30;99.90;;;;;;5046243;28;20472;-78
2023/06/04 08:17:44;;;;;;;8.27;2.73;;;16.80;99.90;;;;;;5046023;28;20503;-75
2023/06/04 08:20:10;;;;;;;5.00;2.25;;;16.90;99.90;;;;;;5046850;28;20432;-79
2023/06/04 08:22:35;;;;;;;8.55;3.20;;;17.00;99.90;;;;;;5045508;28;20425;-75
2023/06/04 08:25:01;;;;;;;7.20;2.57;;;17.20;99.90;;;;;;5045817;28;20467;-76
2023/06/04 08:27:27;;;;;;;5.37;2.43;;;17.30;99.90;;;;;;5047525;28;20903;-76
2023/06/04 08:29:53;;;;;;;6.88;2.42;;;17.40;99.90;;;;;;5048842;28;20445;-76
2023/06/04 08:32:18;;;;;;;5.78;2.42;;;17.10;99.90;;;;;;5046717;28;20429;-76
2023/06/04 08:34:44;;;;;;;9.30;2.40;;;17.30;99.90;;;;;;5049192;28;20942;-75
2023/06/04 08:37:10;;;;;;;5.33;2.30;;;17.40;99.90;;;;;;5029896;28;20456;-79
2023/06/04 08:39:36;;;;;;;7.03;2.60;;;17.30;99.90;;;;;;5040869;28;20491;-75
2023/06/04 08:42:07;;;;;;;4.53;1.92;;;17.20;99.90;;;;;;5047914;28;20430;-76
2023/06/04 08:44:33;;;;;;;7.73;2.63;;;17.60;99.90;;;;;;5044433;28;20561;-76
2023/06/04 08:47:04;;;;;;;9.53;2.37;;;17.90;99.90;;;;;;5046482;28;20938;-76
2023/06/04 08:49:38;;;;;;;8.07;2.03;;;17.20;99.90;;;;;;5047044;28;20428;-78
2023/06/04 08:52:05;;;;;;;6.88;2.58;;;17.40;99.90;;;;;;5045132;28;20444;-78
2023/06/04 08:54:32;;;;;;;7.88;1.92;;;17.50;99.90;;;;;;5044654;28;20456;-75
2023/06/04 08:56:58;;;;;;;6.65;1.90;;;17.80;99.90;;;;;;5044432;28;20458;-74
2023/06/04 08:59:23;;;;;;;5.30;2.00;;;17.80;99.90;;;;;;5043743;28;20777;-77
2023/06/04 09:01:55;;;;;;;6.30;2.30;;;17.80;99.90;;;;;;5042041;28;20425;-77
2023/06/04 09:04:21;;;;;;;5.95;2.42;;;17.50;99.90;;;;;;5046817;28;20418;-77
2023/06/04 09:06:47;;;;;;;7.30;2.78;;;17.80;99.90;;;;;;5045174;28;20431;-78
2023/06/04 09:09:18;;;;;;;6.82;2.05;;;18.10;99.90;;;;;;5045237;28;20409;-74
2023/06/04 09:11:55;;;;;;;5.15;2.28;;;17.60;99.90;;;;;;5045351;28;20482;-75
2023/06/04 09:14:20;;;;;;;5.75;1.88;;;17.40;99.90;;;;;;5042172;28;20771;-77
2023/06/04 09:16:51;;;;;;;4.30;2.03;;;17.60;99.90;;;;;;5042989;28;20425;-75
2023/06/04 09:19:18;;;;;;;5.47;1.88;;;18.10;99.90;;;;;;5028167;28;20409;-75
2023/06/04 09:21:55;;;;;;;6.57;2.83;;;17.90;99.90;;;;;;5045620;28;20498;-77
2023/06/04 09:24:22;;;;;;;2.40;1.10;;;18.10;99.90;;;;;;5043912;28;20476;-76
2023/06/04 09:26:48;;;;;;;3.50;1.13;;;18.20;99.90;;;;;;5043586;28;20527;-77
2023/06/04 09:29:15;;;;;;;4.07;1.30;;;18.50;99.90;;;;;;5045674;28;20917;-74
2023/06/04 09:31:41;;;;;;;7.35;2.55;;;18.50;99.90;;;;;;5045098;28;20448;-75
2023/06/04 09:34:07;;;;;;;5.68;2.00;;;18.20;99.90;;;;;;5045682;28;20393;-74
2023/06/04 09:36:35;;;;;;;6.40;2.80;;;17.90;99.90;;;;;;5044842;28;20465;-74
2023/06/04 09:39:03;;;;;;;4.13;2.30;;;17.90;99.90;;;;;;5027182;28;20436;-75
2023/06/04 09:41:28;;;;;;;5.33;2.23;;;18.00;99.90;;;;;;5045375;28;20402;-75
2023/06/04 09:44:02;;;;;;;5.87;2.57;;;17.90;99.90;;;;;;5045220;28;20737;-75
2023/06/04 09:46:28;;;;;;;3.92;1.80;;;17.90;99.90;;;;;;5044305;28;20501;-76
2023/06/04 09:49:03;;;;;;;4.10;2.30;;;17.90;99.90;;;;;;5022996;28;20418;-74
2023/06/04 09:51:30;;;;;;;7.90;2.70;;;18.60;99.90;;;;;;5025484;28;20829;-74
2023/06/04 09:53:56;;;;;;;3.97;1.55;;;18.70;99.90;;;;;;5011304;28;20425;-74
2023/06/04 09:56:22;;;;;;;5.20;1.90;;;18.60;99.90;;;;;;5048352;28;20437;-78
2023/06/04 09:58:55;;;;;;;4.10;1.93;;;18.10;99.90;;;;;;5049285;28;20417;-76
2023/06/04 10:01:23;;;;;;;4.70;1.85;;;18.10;99.90;;;;;;5048963;28;20471;-76
2023/06/04 10:03:50;;;;;;;4.97;1.95;;;18.20;99.90;;;;;;5049022;28;20412;-78
2023/06/04 10:06:20;;;;;;;3.15;1.55;;;18.60;99.90;;;;;;5048997;28;20425;-75
2023/06/04 10:08:48;;;;;;;4.90;2.20;;;18.20;99.90;;;;;;5046956;28;20930;-73
2023/06/04 10:11:22;;;;;;;5.18;2.10;;;18.30;99.90;;;;;;5046944;28;20434;-78
2023/06/04 10:14:02;;;;;;;4.38;1.80;;;18.40;99.90;;;;;;5043447;28;20492;-79
2023/06/04 10:16:30;;;;;;;5.20;1.52;;;18.50;99.90;;;;;;5048315;28;20494;-74
2023/06/04 10:18:57;;;;;;;2.97;1.13;;;18.40;99.90;;;;;;5048686;28;20512;-76
2023/06/04 10:21:23;;;;;;;3.22;1.60;;;18.30;99.90;;;;;;5048892;28;20437;-73
2023/06/04 10:23:50;;;;;;;4.35;1.55;;;18.40;99.90;;;;;;5047618;28;20500;-75
2023/06/04 10:26:16;;;;;;;3.10;1.40;;;18.30;99.90;;;;;;5047293;28;20943;-73
2023/06/04 10:28:43;;;;;;;3.13;1.40;;;18.50;99.90;;;;;;5048050;28;22548;-74
2023/06/04 10:31:12;;;;;;;4.73;1.77;;;18.60;99.90;;;;;;5048487;28;20800;-76
2023/06/04 10:33:39;;;;;;;3.15;1.45;;;18.90;99.90;;;;;;5048207;28;20504;-74
2023/06/04 10:36:24;;;;;;;3.65;1.77;;;19.40;99.90;;;;;;5037905;28;20458;-74
2023/06/04 10:38:52;;;;;;;4.82;1.30;;;19.20;99.90;;;;;;5036163;28;20526;-73
2023/06/04 10:41:19;;;;;;;5.70;2.15;;;19.10;99.90;;;;;;5048574;28;20409;-76
2023/06/04 10:43:46;;;;;;;4.00;1.35;;;19.00;99.90;;;;;;5049647;28;20509;-73
2023/06/04 10:46:13;;;;;;;5.43;2.47;;;18.40;99.90;;;;;;5031040;28;20425;-73
2023/06/04 10:49:09;;;;;;;4.10;1.20;;;18.70;99.90;;;;;;5049822;28;20433;-74
2023/06/04 10:51:38;;;;;;;5.28;2.60;;;18.90;99.90;;;;;;5013942;28;20780;-77
2023/06/04 10:54:04;;;;;;;5.03;1.80;;;18.60;99.90;;;;;;5042819;28;20520;-75
2023/06/04 10:56:37;;;;;;;5.20;2.10;;;18.70;99.90;;;;;;5047034;28;20539;-75
2023/06/04 10:59:19;;;;;;;4.10;1.90;;;18.90;99.90;;;;;;5047180;28;20939;-74
2023/06/04 11:01:45;;;;;;;4.65;1.90;;;18.80;99.90;;;;;;5030565;28;20496;-77
2023/06/04 11:04:22;;;;;;;3.97;1.30;;;18.90;99.90;;;;;;5047841;28;20421;-78
2023/06/04 11:06:48;;;;;;;3.83;1.73;;;19.10;99.90;;;;;;5046032;28;20432;-74
2023/06/04 11:09:18;;;;;;;4.32;1.50;;;18.90;99.90;;;;;;5046598;28;20421;-74
2023/06/04 11:11:44;;;;;;;10.40;2.27;;;19.00;99.90;;;;;;5047915;28;20531;-75
2023/06/04 11:14:15;;;;;;;5.80;2.37;;;19.10;99.90;;;;;;5048761;28;20512;-75
2023/06/04 11:16:41;;;;;;;5.22;1.70;;;19.00;99.90;;;;;;5048599;28;20421;-75
2023/06/04 11:19:07;;;;;;;2.40;1.50;;;18.90;99.90;;;;;;5049748;28;20444;-74
2023/06/04 11:21:36;;;;;;;4.38;1.80;;;19.20;99.90;;;;;;5049868;28;20740;-74
2023/06/04 11:24:03;;;;;;;4.35;1.70;;;18.90;99.90;;;;;;5043351;28;20419;-74
2023/06/04 11:26:36;;;;;;;5.27;1.43;;;18.90;99.90;;;;;;5045714;28;20429;-74
2023/06/04 11:29:06;;;;;;;5.45;2.20;;;18.80;99.90;;;;;;5047729;28;20418;-77
2023/06/04 11:31:42;;;;;;;2.50;1.70;;;19.30;99.90;;;;;;5047956;28;20408;-75
2023/06/04 11:34:08;;;;;;;5.05;1.50;;;19.50;99.90;;;;;;5047632;28;20439;-74
2023/06/04 11:36:35;;;;;;;4.80;1.52;;;19.40;99.90;;;;;;5047358;28;21050;-79
2023/06/04 11:39:03;;;;;;;4.07;1.50;;;19.60;99.90;;;;;;5046655;28;20500;-75
2023/06/04 11:41:34;;;;;;;5.38;2.15;;;19.10;99.90;;;;;;5040248;28;20431;-74
2023/06/04 11:44:05;;;;;;;5.07;1.90;;;19.30;99.90;;;;;;5041831;28;20414;-71
2023/06/04 11:46:32;;;;;;;3.47;1.77;;;19.20;99.90;;;;;;5041013;28;20475;-76
2023/06/04 11:48:58;;;;;;;2.20;1.63;;;19.10;99.90;;;;;;5034973;28;20909;-74
2023/06/04 11:51:24;;;;;;;3.45;1.67;;;18.90;99.90;;;;;;5045173;28;20514;-74
2023/06/04 11:53:50;;;;;;;3.70;1.90;;;19.20;99.90;;;;;;5045404;28;20482;-77
2023/06/04 11:56:17;;;;;;;5.00;2.10;;;19.50;99.90;;;;;;5042989;28;20508;-77
2023/06/04 11:58:43;;;;;;;5.03;2.30;;;19.50;99.90;;;;;;5046057;28;20772;-75
2023/06/04 12:01:09;;;;;;;7.30;2.10;;;19.10;99.90;;;;;;5035613;28;20421;-75
2023/06/04 12:03:40;;;;;;;4.18;1.75;;;19.10;99.90;;;;;;5032996;28;20424;-79
2023/06/04 12:06:18;;;;;;;3.97;2.08;;;19.60;99.90;;;;;;5049852;28;20824;-78
2023/06/04 12:08:51;;;;;;;7.05;2.45;;;19.40;99.90;;;;;;5045134;28;20419;-75
2023/06/04 12:11:35;;;;;;;7.43;2.78;;;19.30;99.90;;;;;;5028139;28;20519;-76
2023/06/04 12:14:05;;;;;;;4.47;2.45;;;19.40;99.90;;;;;;5045941;28;20420;-76
2023/06/04 12:16:31;;;;;;;4.53;2.00;;;18.80;99.90;;;;;;5045321;28;21173;-76
2023/06/04 12:19:07;;;;;;;4.43;1.88;;;19.40;99.90;;;;;;5028377;28;20417;-75
2023/06/04 12:21:33;;;;;;;3.63;1.60;;;19.10;99.90;;;;;;5044151;28;20425;-74
2023/06/04 12:24:08;;;;;;;5.43;2.60;;;19.30;99.90;;;;;;5040403;28;20436;-75
2023/06/04 12:26:37;;;;;;;4.60;2.17;;;19.70;99.90;;;;;;5041381;28;20512;-73
2023/06/04 12:29:19;;;;;;;4.10;2.03;;;19.40;99.90;;;;;;5045472;28;20432;-76
2023/06/04 12:31:46;;;;;;;4.13;1.90;;;19.50;99.90;;;;;;5029776;28;20996;-74
2023/06/04 12:34:15;;;;;;;8.05;3.50;;;19.40;99.90;;;;;;5026242;28;20436;-75
2023/06/04 12:36:42;;;;;;;5.00;1.73;;;19.00;99.90;;;;;;5045161;28;20467;-75
2023/06/04 12:39:08;;;;;;;8.75;1.77;;;19.70;99.90;;;;;;5044790;28;20432;-74
2023/06/04 12:41:34;;;;;;;5.07;1.98;;;19.30;99.90;;;;;;5047333;28;20422;-74
2023/06/04 12:44:01;;;;;;;2.67;1.50;;;19.40;99.90;;;;;;5047124;28;20419;-76